Terminal Aerodrome Forecast
Issued by NWS

Home | Current Version | Previous Version | Text Only | Print | Product List | Glossary On
Versions: 1 2 3 4 5 6 7 8 9 10 11 12 13 14 15 16 17 18 19 20 21 22 23
000
FTUS45 KSLC 202329
TAFPVU
TAF
KPVU 202329Z 2100/2124 VRB04KT P6SM SCT120
     FM210300 13006KT P6SM SCT120
     FM210600 14008KT P6SM VCSH SCT070 BKN090
     FM211600 34010G18KT P6SM -SHRA SCT030 BKN060
     FM212100 34010KT P6SM VCSH SCT030 BKN060
      AMD LTD TO CLD VIS AND WIND=

USA.gov is the U.S. government's official web portal to all federal, state and local government web resources and services.